Time;durP1;ratioP1;P1;durP2;ratioP2;P2;SDS_P1;SDS_P2;PMS_P1;PMS_P2;Temp;Humidity;BMP_temperature;BMP_pressure;BME280_temperature;BME280_humidity;BME280_pressure;Samples;Min_cycle;Max_cycle;Signal;HPM_P1;HPM_P2
2023/12/22 00:00:09;;;;;;;8.50;2.03;;;;;;;7.22;89.11;100252.72;5060081;28;20036;-79
2023/12/22 00:02:34;;;;;;;8.00;1.58;;;;;;;7.24;88.99;100251.78;5065567;28;20403;-80
2023/12/22 00:05:00;;;;;;;6.38;1.13;;;;;;;7.25;89.17;100250.00;5061427;28;20055;-80
2023/12/22 00:07:25;;;;;;;12.43;1.70;;;;;;;7.22;88.84;100250.09;5063172;28;20031;-80
2023/12/22 00:09:51;;;;;;;11.35;1.30;;;;;;;7.20;88.83;100255.44;5064747;28;20032;-80
2023/12/22 00:12:16;;;;;;;5.90;1.40;;;;;;;7.19;88.92;100237.94;5063575;28;20203;-80
2023/12/22 00:14:42;;;;;;;10.48;1.50;;;;;;;7.20;88.66;100223.88;5063184;28;20036;-81
2023/12/22 00:17:08;;;;;;;6.25;1.27;;;;;;;7.19;88.27;100230.06;5058125;28;20387;-80
2023/12/22 00:19:33;;;;;;;8.23;1.58;;;;;;;7.21;88.57;100251.88;5062584;28;20044;-80
2023/12/22 00:21:58;;;;;;;6.82;1.33;;;;;;;7.24;88.51;100256.19;5063145;28;20182;-80
2023/12/22 00:24:24;;;;;;;5.22;1.40;;;;;;;7.27;88.96;100266.56;5059002;28;20059;-80
2023/12/22 00:26:49;;;;;;;9.43;2.03;;;;;;;7.28;89.03;100266.53;5065878;28;20032;-79
2023/12/22 00:29:15;;;;;;;7.88;1.58;;;;;;;7.28;89.13;100268.31;5063051;28;20016;-79
2023/12/22 00:31:41;;;;;;;7.75;1.65;;;;;;;7.25;88.48;100256.13;5066551;28;20024;-79
2023/12/22 00:34:06;;;;;;;9.57;1.73;;;;;;;7.19;88.73;100266.00;5064224;28;20029;-80
2023/12/22 00:36:32;;;;;;;7.47;1.30;;;;;;;7.22;88.29;100272.00;5067394;28;20480;-80
2023/12/22 00:38:57;;;;;;;11.82;1.40;;;;;;;7.27;88.18;100277.09;5065960;28;20214;-80
2023/12/22 00:41:22;;;;;;;7.32;1.80;;;;;;;7.25;88.24;100278.94;5057337;28;20078;-81
2023/12/22 00:43:48;;;;;;;5.93;1.10;;;;;;;7.03;88.95;100284.06;5063284;28;20029;-80
2023/12/22 00:46:13;;;;;;;7.75;1.50;;;;;;;7.06;89.17;100279.56;5064080;28;20546;-80
2023/12/22 00:48:39;;;;;;;6.28;1.25;;;;;;;7.15;88.65;100286.28;5060043;28;20051;-79
2023/12/22 00:51:07;;;;;;;7.60;1.65;;;;;;;7.03;89.24;100292.81;5061267;28;20416;-79
2023/12/22 00:53:32;;;;;;;6.50;1.27;;;;;;;6.99;89.35;100279.81;5069515;28;20392;-80
2023/12/22 00:55:57;;;;;;;9.52;1.92;;;;;;;6.96;89.81;100265.03;5058568;28;20028;-80
2023/12/22 00:58:23;;;;;;;11.82;1.90;;;;;;;6.95;89.69;100278.22;5060644;28;20052;-81
2023/12/22 01:00:48;;;;;;;11.77;1.48;;;;;;;6.89;89.63;100271.41;5062195;28;20059;-80
2023/12/22 01:03:13;;;;;;;8.73;2.05;;;;;;;6.97;89.50;100271.16;5068723;28;20032;-79
2023/12/22 01:05:39;;;;;;;10.30;2.50;;;;;;;7.01;89.16;100280.66;5063561;28;20024;-79
2023/12/22 01:08:04;;;;;;;13.05;1.77;;;;;;;6.83;89.47;100280.34;5065928;28;20483;-79
2023/12/22 01:10:30;;;;;;;9.63;2.20;;;;;;;6.81;89.60;100265.56;5066757;28;20101;-79
2023/12/22 01:12:55;;;;;;;12.45;2.60;;;;;;;6.78;89.86;100256.00;5060688;28;20399;-80
2023/12/22 01:15:20;;;;;;;8.85;1.60;;;;;;;6.78;90.14;100266.53;5062083;28;20029;-79
2023/12/22 01:17:46;;;;;;;12.45;2.22;;;;;;;6.82;90.22;100273.38;5055924;28;20365;-80
2023/12/22 01:20:11;;;;;;;7.63;1.42;;;;;;;6.89;90.10;100271.41;5058759;28;20429;-79
2023/12/22 01:22:38;;;;;;;9.25;1.65;;;;;;;6.97;89.88;100282.50;5062359;28;20036;-80
2023/12/22 01:25:04;;;;;;;12.10;2.58;;;;;;;7.00;89.85;100282.41;5064105;28;20069;-80
2023/12/22 01:27:30;;;;;;;10.80;1.52;;;;;;;7.04;89.90;100284.03;5062912;28;20103;-80
2023/12/22 01:29:56;;;;;;;15.10;2.63;;;;;;;7.11;89.79;100296.03;5067407;28;20495;-81
2023/12/22 01:32:21;;;;;;;9.55;2.35;;;;;;;7.12;90.04;100300.38;5068084;28;20032;-80
2023/12/22 01:34:46;;;;;;;14.63;2.45;;;;;;;7.13;90.20;100298.59;5067262;28;20037;-79
2023/12/22 01:37:12;;;;;;;9.65;2.88;;;;;;;7.12;90.06;100310.88;5070069;28;20028;-81
2023/12/22 01:39:37;;;;;;;18.27;2.25;;;;;;;7.07;90.26;100304.09;5068997;28;20169;-80
2023/12/22 01:42:03;;;;;;;11.93;1.88;;;;;;;7.10;89.97;100310.09;5062913;28;20028;-80
2023/12/22 01:44:28;;;;;;;10.25;2.00;;;;;;;7.04;89.90;100302.44;5066088;28;20039;-80
2023/12/22 01:46:54;;;;;;;14.88;2.60;;;;;;;7.02;89.33;100300.75;5069042;28;20024;-80
2023/12/22 01:49:21;;;;;;;16.25;2.58;;;;;;;7.08;89.49;100295.28;5069463;28;20027;-79
2023/12/22 01:51:47;;;;;;;11.52;2.72;;;;;;;7.18;88.21;100293.19;5067648;28;20040;-80
2023/12/22 01:54:15;;;;;;;12.95;2.85;;;;;;;7.30;85.59;100295.41;5063018;28;20021;-80
2023/12/22 01:56:41;;;;;;;11.88;2.38;;;;;;;7.38;82.91;100302.09;5066479;28;20411;-80
2023/12/22 01:59:07;;;;;;;5.75;1.70;;;;;;;7.53;82.14;100303.31;5065302;28;20031;-80
2023/12/22 02:01:33;;;;;;;10.15;2.20;;;;;;;7.63;80.82;100309.97;5063976;28;20449;-79
2023/12/22 02:03:59;;;;;;;12.88;1.95;;;;;;;7.65;80.77;100310.78;5063293;28;20036;-80
2023/12/22 02:06:24;;;;;;;6.20;1.73;;;;;;;7.67;79.65;100329.13;5068374;28;20024;-80
2023/12/22 02:08:50;;;;;;;10.13;3.05;;;;;;;7.75;77.85;100313.94;5064361;28;20349;-78
2023/12/22 02:11:16;;;;;;;18.45;2.55;;;;;;;7.81;77.48;100308.44;5061110;28;20025;-79
2023/12/22 02:13:43;;;;;;;12.63;2.05;;;;;;;7.85;76.90;100312.66;5058994;28;20038;-79
2023/12/22 02:16:16;;;;;;;9.73;1.48;;;;;;;7.87;78.18;100296.81;5059585;28;20760;-80
2023/12/22 02:18:44;;;;;;;8.70;1.98;;;;;;;7.85;78.00;100303.91;5059149;28;20030;-80
2023/12/22 02:21:10;;;;;;;10.77;2.25;;;;;;;7.86;77.35;100308.25;5062107;28;20515;-79
2023/12/22 02:23:35;;;;;;;10.85;2.03;;;;;;;7.83;77.79;100296.09;5061895;28;20085;-80
2023/12/22 02:26:10;;;;;;;12.98;2.40;;;;;;;7.75;78.78;100289.38;5060973;28;20111;-78
2023/12/22 02:28:37;;;;;;;13.30;2.20;;;;;;;7.75;77.84;100287.63;5064037;28;20033;-79
2023/12/22 02:31:17;;;;;;;7.32;1.75;;;;;;;8.02;76.63;100309.41;5060157;28;20025;-79
2023/12/22 02:33:44;;;;;;;8.05;1.67;;;;;;;8.12;75.17;100316.03;5063017;28;20090;-78
2023/12/22 02:36:12;;;;;;;11.60;1.85;;;;;;;8.15;75.12;100312.41;5057545;28;20033;-79
2023/12/22 02:38:39;;;;;;;4.70;1.50;;;;;;;8.17;74.73;100316.72;5059922;28;20033;-78
2023/12/22 02:41:05;;;;;;;11.38;2.25;;;;;;;8.20;72.91;100307.81;5062377;28;20494;-78
2023/12/22 02:43:31;;;;;;;13.50;1.80;;;;;;;8.31;71.67;100291.63;5058148;28;20060;-79
2023/12/22 02:45:56;;;;;;;9.73;1.48;;;;;;;8.40;70.81;100310.56;5060481;28;20109;-79
2023/12/22 02:48:22;;;;;;;6.32;1.75;;;;;;;8.41;71.40;100309.66;5061840;28;20029;-78
2023/12/22 02:50:47;;;;;;;10.82;1.83;;;;;;;8.37;71.20;100315.94;5062640;28;20023;-79
2023/12/22 02:53:12;;;;;;;7.40;1.38;;;;;;;8.37;72.65;100315.09;5065194;28;20213;-78
2023/12/22 02:55:38;;;;;;;8.65;1.38;;;;;;;8.28;72.93;100318.91;5066497;28;20036;-74
2023/12/22 02:58:06;;;;;;;7.88;1.77;;;;;;;8.26;73.40;100310.22;5058268;28;20067;-79
2023/12/22 03:00:31;;;;;;;10.20;2.00;;;;;;;8.25;73.90;100303.22;5059778;28;20136;-79
2023/12/22 03:02:56;;;;;;;7.57;1.70;;;;;;;8.17;74.04;100318.47;5065280;28;20111;-77
2023/12/22 03:05:22;;;;;;;11.10;1.55;;;;;;;8.09;74.23;100297.72;5066520;28;20034;-80
2023/12/22 03:07:47;;;;;;;11.98;2.35;;;;;;;8.02;74.98;100301.50;5065998;28;20032;-79
2023/12/22 03:10:12;;;;;;;10.68;1.88;;;;;;;7.89;76.09;100290.59;5068200;28;20472;-79
2023/12/22 03:12:38;;;;;;;8.10;1.88;;;;;;;7.80;76.55;100280.41;5065354;28;20033;-79
2023/12/22 03:15:04;;;;;;;9.88;2.20;;;;;;;7.75;77.26;100277.09;5065820;28;20056;-79
2023/12/22 03:17:29;;;;;;;11.73;1.67;;;;;;;7.74;77.20;100269.22;5063423;28;20395;-72
2023/12/22 03:19:55;;;;;;;8.43;1.83;;;;;;;7.73;77.75;100263.13;5056690;28;20027;-73
2023/12/22 03:22:20;;;;;;;10.40;1.77;;;;;;;7.68;78.23;100263.28;5055949;28;20450;-73
2023/12/22 03:24:46;;;;;;;8.60;2.35;;;;;;;7.70;78.04;100275.56;5062944;28;20025;-73
2023/12/22 03:27:16;;;;;;;8.52;2.00;;;;;;;7.65;78.30;100279.22;5053051;28;20041;-80
2023/12/22 03:29:42;;;;;;;12.63;1.75;;;;;;;7.65;78.49;100284.47;5058451;28;20017;-79
2023/12/22 03:32:07;;;;;;;8.70;1.42;;;;;;;7.74;78.62;100283.28;5060575;28;20425;-79
2023/12/22 03:34:32;;;;;;;14.65;1.55;;;;;;;7.79;78.47;100286.59;5059729;28;20035;-79
2023/12/22 03:36:57;;;;;;;9.60;2.15;;;;;;;7.82;78.31;100288.22;5052801;28;20032;-79
2023/12/22 03:39:23;;;;;;;10.63;1.55;;;;;;;7.83;78.49;100296.09;5056743;28;20025;-78
2023/12/22 03:41:48;;;;;;;11.93;2.72;;;;;;;7.88;78.29;100290.63;5059517;28;20059;-79
2023/12/22 03:44:13;;;;;;;5.88;1.63;;;;;;;7.91;78.43;100296.63;5060374;28;20045;-79
2023/12/22 03:46:39;;;;;;;7.45;1.88;;;;;;;7.92;77.69;100284.31;5056070;28;20100;-79
2023/12/22 03:49:04;;;;;;;6.43;1.60;;;;;;;8.02;77.31;100280.44;5058415;28;20020;-79
2023/12/22 03:51:30;;;;;;;7.85;1.50;;;;;;;8.06;77.73;100292.53;5059234;28;20078;-79
2023/12/22 03:53:55;;;;;;;12.43;1.80;;;;;;;8.12;77.74;100296.75;5056443;28;20491;-79
2023/12/22 03:56:20;;;;;;;6.95;1.95;;;;;;;8.15;77.06;100294.81;5058043;28;20059;-79
2023/12/22 03:58:45;;;;;;;11.43;1.67;;;;;;;8.19;77.09;100292.94;5054488;28;20036;-79
2023/12/22 04:01:14;;;;;;;15.02;1.70;;;;;;;8.28;76.39;100297.84;5056257;28;21338;-79
2023/12/22 04:03:39;;;;;;;11.32;1.75;;;;;;;8.28;76.33;100300.47;5061338;28;20509;-79
2023/12/22 04:06:05;;;;;;;13.43;2.70;;;;;;;8.33;77.07;100310.84;5055777;28;20151;-73
2023/12/22 04:08:30;;;;;;;11.18;3.00;;;;;;;8.34;76.58;100309.91;5068346;28;20032;-74
2023/12/22 04:10:56;;;;;;;12.80;2.53;;;;;;;8.35;76.42;100311.66;5052278;28;20365;-73
2023/12/22 04:13:21;;;;;;;9.10;1.27;;;;;;;8.42;76.11;100328.94;5059910;28;20119;-74
2023/12/22 04:15:46;;;;;;;6.50;1.60;;;;;;;8.48;75.80;100315.50;5063225;28;20490;-73
2023/12/22 04:18:12;;;;;;;19.88;2.15;;;;;;;8.53;75.62;100323.25;5058113;28;20077;-73
2023/12/22 04:20:37;;;;;;;11.27;2.17;;;;;;;8.57;75.58;100324.84;5060110;28;20115;-73
2023/12/22 04:23:03;;;;;;;13.63;2.30;;;;;;;8.60;75.53;100324.72;5059148;28;20530;-72
2023/12/22 04:25:28;;;;;;;11.75;1.75;;;;;;;8.60;75.49;100333.47;5055351;28;20040;-72
2023/12/22 04:27:53;;;;;;;8.73;1.85;;;;;;;8.64;75.35;100340.34;5060980;28;20060;-73
2023/12/22 04:30:19;;;;;;;6.95;1.50;;;;;;;8.67;74.19;100341.97;5056037;28;20056;-72
2023/12/22 04:32:44;;;;;;;10.82;2.40;;;;;;;8.69;74.74;100337.53;5053813;28;20029;-73
2023/12/22 04:35:09;;;;;;;5.65;1.63;;;;;;;8.69;73.92;100348.91;5058729;28;20124;-72
2023/12/22 04:37:35;;;;;;;11.73;2.30;;;;;;;8.71;73.33;100348.84;5062445;28;20043;-72
2023/12/22 04:40:00;;;;;;;5.63;1.63;;;;;;;8.74;73.33;100345.25;5056804;28;20383;-73
2023/12/22 04:42:26;;;;;;;10.95;2.58;;;;;;;8.73;73.00;100348.81;5056939;28;20040;-73
2023/12/22 04:44:52;;;;;;;5.28;1.42;;;;;;;8.75;71.53;100350.44;5064399;28;20070;-73
2023/12/22 04:47:17;;;;;;;5.32;1.60;;;;;;;8.82;71.36;100349.28;5055087;28;20020;-78
2023/12/22 04:49:42;;;;;;;7.72;1.50;;;;;;;8.84;71.33;100333.41;5061917;28;20021;-78
2023/12/22 04:52:08;;;;;;;13.88;2.67;;;;;;;8.87;70.14;100359.66;5059181;28;20048;-78
2023/12/22 04:54:33;;;;;;;13.68;1.52;;;;;;;8.91;70.29;100348.06;5062758;28;20055;-78
2023/12/22 04:56:59;;;;;;;10.70;1.65;;;;;;;8.89;71.13;100347.25;5064599;28;20028;-78
2023/12/22 04:59:24;;;;;;;7.30;1.30;;;;;;;8.88;71.02;100343.75;5066958;28;20027;-80
2023/12/22 05:01:49;;;;;;;12.57;2.63;;;;;;;8.50;72.14;100355.00;5060985;28;20146;-80
2023/12/22 05:04:15;;;;;;;9.02;1.73;;;;;;;8.42;72.96;100356.13;5058354;28;20300;-79
2023/12/22 05:06:40;;;;;;;9.43;1.60;;;;;;;8.66;73.11;100361.34;5053705;28;20025;-77
2023/12/22 05:09:05;;;;;;;12.70;1.65;;;;;;;8.66;73.45;100370.13;5050524;28;20029;-78
2023/12/22 05:11:31;;;;;;;7.32;1.73;;;;;;;8.67;73.36;100363.94;5056885;28;20116;-78
2023/12/22 05:13:56;;;;;;;6.38;1.30;;;;;;;8.66;73.67;100364.00;5059348;28;20112;-78
2023/12/22 05:16:21;;;;;;;8.90;1.65;;;;;;;8.73;74.12;100356.72;5058509;28;20029;-72
2023/12/22 05:18:47;;;;;;;9.00;1.73;;;;;;;8.71;75.12;100350.63;5061446;28;20028;-72
2023/12/22 05:21:14;;;;;;;9.60;1.58;;;;;;;8.73;75.11;100360.22;5055912;28;20031;-73
2023/12/22 05:23:39;;;;;;;9.32;1.45;;;;;;;8.76;76.39;100360.06;5057350;28;20031;-72
2023/12/22 05:26:04;;;;;;;10.52;1.48;;;;;;;8.73;75.90;100367.25;5060389;28;20051;-73
2023/12/22 05:28:30;;;;;;;9.55;1.20;;;;;;;8.73;76.00;100377.81;5062097;28;20479;-72
2023/12/22 05:30:55;;;;;;;7.78;1.75;;;;;;;8.71;78.23;100363.81;5057060;28;20021;-73
2023/12/22 05:33:20;;;;;;;7.13;1.25;;;;;;;8.65;79.06;100364.91;5061125;28;20104;-72
2023/12/22 05:35:46;;;;;;;8.85;1.58;;;;;;;8.56;79.52;100357.38;5063593;28;20025;-73
2023/12/22 05:38:11;;;;;;;8.82;2.00;;;;;;;8.54;79.56;100356.59;5061921;28;20404;-72
2023/12/22 05:40:36;;;;;;;6.32;2.35;;;;;;;8.51;80.46;100349.66;5055855;28;20404;-73
2023/12/22 05:43:02;;;;;;;17.73;1.70;;;;;;;8.48;80.98;100347.13;5058985;28;20487;-73
2023/12/22 05:45:27;;;;;;;10.80;1.60;;;;;;;8.43;81.34;100341.19;5061302;28;20458;-72
2023/12/22 05:47:52;;;;;;;12.55;2.75;;;;;;;8.43;82.00;100343.81;5061393;28;20036;-73
2023/12/22 05:50:18;;;;;;;14.20;2.88;;;;;;;8.49;82.44;100340.97;5059167;28;20546;-73
2023/12/22 05:52:46;;;;;;;13.35;2.50;;;;;;;8.50;82.95;100353.22;5061078;28;20488;-73
2023/12/22 05:55:11;;;;;;;17.40;2.88;;;;;;;8.54;83.13;100343.41;5063424;28;20028;-73
2023/12/22 05:57:37;;;;;;;11.05;2.90;;;;;;;8.62;82.64;100355.34;5063216;28;20102;-73
2023/12/22 06:00:07;;;;;;;17.88;3.22;;;;;;;8.63;83.24;100346.53;5064583;28;20078;-73
2023/12/22 06:02:33;;;;;;;17.77;3.67;;;;;;;8.72;83.24;100344.44;5062696;28;20524;-73
2023/12/22 06:04:59;;;;;;;15.80;3.15;;;;;;;8.74;83.02;100335.56;5058148;28;20178;-73
2023/12/22 06:07:24;;;;;;;16.60;2.40;;;;;;;8.76;82.85;100346.03;5055310;28;20108;-73
2023/12/22 06:09:50;;;;;;;13.18;2.90;;;;;;;8.74;83.16;100354.00;5058446;28;20025;-73
2023/12/22 06:12:15;;;;;;;15.05;2.95;;;;;;;8.79;83.49;100346.78;5063095;28;20104;-75
2023/12/22 06:14:40;;;;;;;9.10;2.33;;;;;;;8.82;84.13;100341.38;5066613;28;20024;-73
2023/12/22 06:17:06;;;;;;;16.88;2.78;;;;;;;8.79;83.70;100328.31;5062998;28;20048;-73
2023/12/22 06:19:32;;;;;;;15.82;2.70;;;;;;;8.77;84.51;100329.31;5062280;28;20124;-74
2023/12/22 06:21:57;;;;;;;13.73;2.53;;;;;;;8.74;84.90;100329.44;5064557;28;20047;-74
2023/12/22 06:24:23;;;;;;;16.55;2.75;;;;;;;8.67;85.84;100323.53;5061661;28;20024;-74
2023/12/22 06:26:49;;;;;;;17.70;3.00;;;;;;;8.62;86.44;100318.44;5060086;28;20016;-80
2023/12/22 06:29:15;;;;;;;15.70;3.17;;;;;;;8.63;86.87;100330.72;5060914;28;20083;-79
2023/12/22 06:31:41;;;;;;;15.88;3.38;;;;;;;8.63;86.72;100324.59;5054283;28;20517;-79
2023/12/22 06:34:06;;;;;;;19.33;3.97;;;;;;;8.66;86.22;100335.84;5052515;28;20052;-80
2023/12/22 06:36:31;;;;;;;23.20;4.05;;;;;;;8.71;85.71;100340.09;5059584;28;20036;-80
2023/12/22 06:38:57;;;;;;;15.02;3.00;;;;;;;8.74;85.53;100359.28;5054498;28;20035;-79
2023/12/22 06:41:30;;;;;;;14.45;2.67;;;;;;;8.79;84.96;100356.47;5060718;28;20032;-80
2023/12/22 06:44:01;;;;;;;19.50;4.50;;;;;;;8.87;84.59;100360.50;5047700;28;20515;-77
2023/12/22 06:46:28;;;;;;;18.30;3.53;;;;;;;8.94;83.46;100371.63;5054523;28;20040;-79
2023/12/22 06:48:55;;;;;;;21.05;3.53;;;;;;;8.93;83.88;100364.66;5060110;28;20024;-79
2023/12/22 06:51:28;;;;;;;21.25;4.20;;;;;;;8.94;83.76;100372.50;5054900;28;20303;-80
2023/12/22 06:53:57;;;;;;;19.15;3.92;;;;;;;9.04;83.05;100364.22;5053256;28;20021;-80
2023/12/22 06:56:26;;;;;;;22.90;3.67;;;;;;;9.10;83.22;100366.63;5060587;28;20035;-79
2023/12/22 06:58:53;;;;;;;20.85;5.18;;;;;;;9.10;83.09;100367.47;5055118;28;20044;-79
2023/12/22 07:01:22;;;;;;;21.20;3.78;;;;;;;9.09;82.92;100357.84;5057164;28;20392;-80
2023/12/22 07:03:49;;;;;;;28.65;5.03;;;;;;;9.13;82.88;100353.28;5055875;28;20480;-79
2023/12/22 07:06:18;;;;;;;21.50;5.93;;;;;;;9.13;83.30;100350.63;5056500;28;20119;-79
2023/12/22 07:08:44;;;;;;;22.90;4.15;;;;;;;9.13;82.96;100348.00;5055371;28;20020;-80
2023/12/22 07:11:10;;;;;;;17.77;3.55;;;;;;;9.11;83.16;100334.91;5061045;28;20016;-79
2023/12/22 07:13:37;;;;;;;23.35;3.50;;;;;;;9.15;82.78;100333.00;5053669;28;20031;-81
2023/12/22 07:16:03;;;;;;;22.65;4.05;;;;;;;9.15;82.41;100338.25;5061946;28;20029;-79
2023/12/22 07:18:31;;;;;;;20.17;4.55;;;;;;;9.17;82.10;100331.13;5055313;28;20495;-80
2023/12/22 07:20:58;;;;;;;22.00;3.63;;;;;;;9.24;81.77;100339.66;5062871;28;20556;-80
2023/12/22 07:23:24;;;;;;;28.58;4.18;;;;;;;9.30;81.52;100342.03;5058253;28;20591;-80
2023/12/22 07:25:49;;;;;;;22.88;4.07;;;;;;;9.31;82.21;100351.66;5055961;28;20032;-79
2023/12/22 07:28:15;;;;;;;21.40;4.15;;;;;;;9.31;81.91;100328.75;5056089;28;20476;-80
2023/12/22 07:30:40;;;;;;;18.80;3.40;;;;;;;9.34;81.63;100335.69;5055220;28;20020;-80
2023/12/22 07:33:06;;;;;;;16.83;3.50;;;;;;;9.38;80.92;100342.56;5054169;28;20040;-77
2023/12/22 07:35:31;;;;;;;20.45;3.80;;;;;;;9.39;81.56;100355.69;5051248;28;20108;-81
2023/12/22 07:37:56;;;;;;;19.33;3.90;;;;;;;9.39;80.96;100339.00;5056418;28;20491;-74
2023/12/22 07:40:22;;;;;;;23.92;3.72;;;;;;;9.40;81.05;100328.38;5050323;28;20021;-75
2023/12/22 07:42:47;;;;;;;25.55;4.03;;;;;;;9.43;80.95;100338.78;5053169;28;20059;-73
2023/12/22 07:45:13;;;;;;;25.20;4.47;;;;;;;9.45;80.37;100328.16;5051310;28;20498;-73
2023/12/22 07:47:38;;;;;;;19.08;3.00;;;;;;;9.48;80.45;100330.69;5054995;28;20437;-80
2023/12/22 07:50:08;;;;;;;18.58;3.70;;;;;;;9.52;80.47;100337.53;5071859;28;20476;-75
2023/12/22 07:52:33;;;;;;;19.58;3.30;;;;;;;9.52;80.39;100326.97;5056222;28;20138;-73
2023/12/22 07:54:59;;;;;;;18.27;3.00;;;;;;;9.58;80.61;100334.63;5058721;28;20025;-76
2023/12/22 07:57:24;;;;;;;15.05;3.65;;;;;;;9.57;80.40;100329.41;5050892;28;20064;-74
2023/12/22 07:59:49;;;;;;;17.02;3.70;;;;;;;9.57;80.73;100332.91;5058583;28;20364;-76
2023/12/22 08:02:15;;;;;;;22.92;3.53;;;;;;;9.56;80.69;100328.56;5056665;28;20020;-73
2023/12/22 08:04:41;;;;;;;20.38;2.60;;;;;;;9.62;80.57;100327.44;5061812;28;20028;-83
2023/12/22 08:07:06;;;;;;;18.20;3.30;;;;;;;9.64;80.25;100338.75;5060205;28;20031;-82
2023/12/22 08:09:32;;;;;;;12.70;2.58;;;;;;;9.68;80.60;100335.91;5057124;28;20465;-80
2023/12/22 08:11:58;;;;;;;20.60;3.35;;;;;;;9.69;80.40;100342.91;5056300;28;20033;-74
2023/12/22 08:14:23;;;;;;;16.40;3.90;;;;;;;9.71;80.28;100343.72;5060874;28;20475;-75
2023/12/22 08:16:49;;;;;;;20.50;2.75;;;;;;;9.77;80.74;100341.72;5056909;28;20287;-75
2023/12/22 08:19:14;;;;;;;13.70;4.05;;;;;;;9.78;80.76;100327.59;5060263;28;20027;-74
2023/12/22 08:21:39;;;;;;;22.70;3.47;;;;;;;9.80;80.82;100328.41;5053635;28;20037;-73
2023/12/22 08:24:05;;;;;;;20.90;2.88;;;;;;;9.82;80.99;100331.81;5064630;28;20032;-75
2023/12/22 08:26:30;;;;;;;21.25;3.47;;;;;;;9.82;81.41;100334.44;5061603;28;20034;-74
2023/12/22 08:28:56;;;;;;;18.02;2.78;;;;;;;9.81;81.24;100335.38;5063948;28;20110;-74
2023/12/22 08:31:21;;;;;;;17.80;3.92;;;;;;;9.78;81.43;100333.72;5051806;28;20032;-78
2023/12/22 08:33:47;;;;;;;15.73;3.58;;;;;;;9.78;81.95;100333.72;5059719;28;20028;-74
2023/12/22 08:36:12;;;;;;;11.93;3.05;;;;;;;9.79;81.57;100321.38;5062151;28;20071;-74
2023/12/22 08:38:40;;;;;;;9.00;2.10;;;;;;;9.82;81.69;100319.47;5066223;28;20028;-74
2023/12/22 08:41:07;;;;;;;13.73;3.30;;;;;;;9.86;82.09;100314.91;5064998;28;20395;-79
2023/12/22 08:43:33;;;;;;;10.18;1.95;;;;;;;9.90;82.16;100316.50;5061473;28;20029;-76
2023/12/22 08:45:58;;;;;;;10.60;2.38;;;;;;;9.95;81.79;100328.53;5060211;28;20035;-80
2023/12/22 08:48:23;;;;;;;8.23;2.30;;;;;;;10.03;81.69;100320.28;5061095;28;20137;-79
2023/12/22 08:50:49;;;;;;;9.38;2.17;;;;;;;10.06;81.77;100319.25;5061733;28;20369;-81
2023/12/22 08:53:15;;;;;;;12.35;2.25;;;;;;;10.08;81.90;100315.63;5061642;28;20024;-80
2023/12/22 08:55:40;;;;;;;10.20;2.50;;;;;;;10.05;82.19;100305.22;5067616;28;20070;-75
2023/12/22 08:58:05;;;;;;;13.18;1.80;;;;;;;10.10;81.71;100303.19;5068881;28;20332;-74
2023/12/22 09:00:31;;;;;;;5.95;2.13;;;;;;;10.14;82.26;100304.78;5067061;28;20175;-74
2023/12/22 09:02:56;;;;;;;6.90;2.05;;;;;;;10.07;82.45;100294.56;5058343;28;20504;-73
2023/12/22 09:05:22;;;;;;;9.48;1.83;;;;;;;10.05;82.69;100302.56;5061370;28;20029;-73
2023/12/22 09:07:47;;;;;;;6.28;1.45;;;;;;;10.13;83.26;100307.50;5067155;28;20021;-72
2023/12/22 09:10:12;;;;;;;5.93;1.50;;;;;;;10.15;83.82;100311.75;5068686;28;20028;-73
2023/12/22 09:12:38;;;;;;;8.27;1.60;;;;;;;10.10;84.24;100319.06;5067179;28;20143;-74
2023/12/22 09:15:04;;;;;;;6.00;1.95;;;;;;;10.17;84.09;100307.28;5067836;28;20424;-74
2023/12/22 09:17:29;;;;;;;3.25;1.30;;;;;;;10.18;84.35;100321.34;5065773;28;20475;-80
2023/12/22 09:19:55;;;;;;;3.38;1.25;;;;;;;10.18;84.38;100321.34;5067593;28;20031;-78
2023/12/22 09:22:21;;;;;;;8.43;1.55;;;;;;;10.17;85.18;100315.22;5067091;28;20032;-79
2023/12/22 09:24:47;;;;;;;7.05;1.10;;;;;;;10.21;85.28;100315.91;5062377;28;20424;-79
2023/12/22 09:27:12;;;;;;;8.18;1.58;;;;;;;10.21;85.71;100318.53;5064405;28;20024;-80
2023/12/22 09:29:38;;;;;;;6.47;1.38;;;;;;;10.17;85.53;100311.72;5068683;28;20630;-79
2023/12/22 09:32:03;;;;;;;7.00;1.00;;;;;;;10.18;86.00;100310.78;5063682;28;20495;-79
2023/12/22 09:34:29;;;;;;;3.80;1.05;;;;;;;10.18;86.17;100300.22;5065410;28;20028;-80
2023/12/22 09:36:54;;;;;;;5.28;1.13;;;;;;;10.22;86.02;100302.63;5066475;28;20067;-79
2023/12/22 09:39:20;;;;;;;5.82;1.63;;;;;;;10.23;85.81;100296.41;5065149;28;20043;-78
2023/12/22 09:41:48;;;;;;;3.60;0.93;;;;;;;10.28;85.86;100292.75;5059446;28;20063;-80
2023/12/22 09:44:20;;;;;;;4.18;0.82;;;;;;;10.34;85.67;100284.50;5063951;28;20032;-79
2023/12/22 09:46:49;;;;;;;6.40;1.00;;;;;;;10.38;85.61;100291.38;5063130;28;20362;-79
2023/12/22 09:49:16;;;;;;;4.82;0.95;;;;;;;10.39;85.52;100293.91;5061070;28;20300;-80
2023/12/22 09:51:43;;;;;;;3.83;1.10;;;;;;;10.43;85.79;100299.91;5059074;28;20144;-79
2023/12/22 09:54:09;;;;;;;4.22;1.00;;;;;;;10.45;84.99;100306.00;5057481;28;20490;-80
2023/12/22 09:56:41;;;;;;;4.38;1.35;;;;;;;10.52;84.72;100291.56;5057444;28;20025;-80
2023/12/22 09:59:08;;;;;;;7.88;1.20;;;;;;;10.63;84.59;100297.19;5061795;28;20041;-79
2023/12/22 10:01:34;;;;;;;3.38;1.30;;;;;;;10.69;84.59;100294.22;5060190;28;20039;-79
2023/12/22 10:04:00;;;;;;;6.13;1.10;;;;;;;10.72;84.24;100296.75;5062523;28;20040;-79
2023/12/22 10:06:25;;;;;;;3.80;0.80;;;;;;;10.59;84.92;100290.34;5057642;28;20032;-80
2023/12/22 10:08:52;;;;;;;3.78;0.98;;;;;;;10.63;84.65;100283.09;5060591;28;20036;-79
2023/12/22 10:11:20;;;;;;;14.07;1.60;;;;;;;10.66;84.58;100302.31;5052289;28;20389;-80
2023/12/22 10:13:48;;;;;;;6.63;1.10;;;;;;;10.67;84.66;100288.16;5057223;28;20401;-79
2023/12/22 10:16:14;;;;;;;3.72;1.05;;;;;;;10.73;84.44;100295.78;5058972;28;20070;-80
2023/12/22 10:18:39;;;;;;;2.53;1.00;;;;;;;10.79;83.76;100312.28;5054696;28;20477;-79
2023/12/22 10:21:05;;;;;;;2.28;0.82;;;;;;;10.82;83.79;100290.97;5058413;28;20020;-79
2023/12/22 10:23:31;;;;;;;5.70;1.08;;;;;;;10.86;83.98;100298.66;5051001;28;20055;-78
2023/12/22 10:25:58;;;;;;;5.07;1.02;;;;;;;10.82;83.92;100304.19;5055604;28;20097;-78
2023/12/22 10:28:26;;;;;;;2.25;0.88;;;;;;;10.80;83.76;100300.78;5055950;28;20255;-80
2023/12/22 10:30:52;;;;;;;4.57;1.13;;;;;;;10.84;83.59;100297.91;5050847;28;20086;-78
2023/12/22 10:33:18;;;;;;;5.95;1.30;;;;;;;10.82;84.14;100294.50;5056046;28;20055;-79
2023/12/22 10:35:43;;;;;;;4.15;0.75;;;;;;;10.86;83.84;100303.09;5059194;28;20476;-75
2023/12/22 10:38:08;;;;;;;2.97;0.95;;;;;;;10.84;84.18;100297.03;5062439;28;20120;-75
2023/12/22 10:40:37;;;;;;;4.30;1.15;;;;;;;10.84;84.16;100295.25;5053169;28;20029;-80
2023/12/22 10:43:02;;;;;;;6.43;1.10;;;;;;;10.88;84.05;100293.31;5055006;28;20749;-74
2023/12/22 10:45:30;;;;;;;1.17;1.08;;;;;;;10.88;84.05;100288.88;5052568;28;20047;-77
2023/12/22 10:47:56;;;;;;;3.53;1.00;;;;;;;10.91;83.74;100291.38;5064058;28;20103;-76
2023/12/22 10:50:24;;;;;;;2.30;1.02;;;;;;;10.92;83.90;100303.66;5078900;28;20084;-86
2023/12/22 10:52:51;;;;;;;5.10;1.08;;;;;;;10.91;84.18;100307.25;5060264;28;20115;-73
2023/12/22 10:55:17;;;;;;;4.68;1.05;;;;;;;11.03;82.99;100307.56;5053065;28;20483;-72
2023/12/22 10:57:45;;;;;;;5.85;1.35;;;;;;;11.06;83.19;100305.63;5059855;28;20491;-76
2023/12/22 11:00:12;;;;;;;4.60;1.58;;;;;;;11.09;83.08;100305.44;5058644;28;20396;-76
2023/12/22 11:02:42;;;;;;;3.00;1.10;;;;;;;11.11;82.82;100293.00;5062608;28;20028;-74
2023/12/22 11:05:10;;;;;;;3.05;1.27;;;;;;;11.12;82.95;100289.44;5059999;28;20028;-74
2023/12/22 11:07:37;;;;;;;4.40;1.02;;;;;;;11.11;82.89;100290.38;5056052;28;20113;-80
2023/12/22 11:10:07;;;;;;;4.20;1.27;;;;;;;11.13;82.64;100296.41;5057219;28;20043;-74
2023/12/22 11:12:37;;;;;;;4.18;1.20;;;;;;;11.15;82.54;100286.63;5062179;28;20074;-76
2023/12/22 11:15:06;;;;;;;4.32;1.20;;;;;;;11.19;82.30;100282.91;5057045;28;20082;-73
2023/12/22 11:17:33;;;;;;;5.80;1.27;;;;;;;11.19;82.53;100292.59;5054070;28;20083;-71
2023/12/22 11:19:59;;;;;;;5.82;0.98;;;;;;;11.23;81.53;100292.34;5068054;28;20593;-73